Terminal Aerodrome Forecast
Issued by NWS

Home | Current Version | Previous Version | Text Only | Print | Product List | Glossary On
Versions: 1 2 3 4 5 6 7 8 9 10 11 12 13 14 15 16 17 18 19 20 21 22 23
000
FTUS43 KEAX 010500
TAFMKC
TAF
KMKC 010520Z 0106/0206 12008KT 5SM -TSRA BKN100CB
      TEMPO 0107/0109 3SM TSRA BR BKN050CB
     FM011200 18010KT P6SM SCT050 BKN200
     FM012200 11008KT P6SM VCTS BKN100CB
     FM020200 08006KT P6SM BKN100=

USA.gov is the U.S. government's official web portal to all federal, state and local government web resources and services.